Accueil
METAR-TAF:

METAR-TAF

Aéroports :

Aéroport international de Bergame-Orio al Serio (Le Caravage)

Bergame, Italie

latitude: 45-40N, longitude: 009-42E, altitude: 238 m

Observation

Le bulletin a été fait il y a 40 minutes, à 04:20 UTC
Vent 4 kt de nord
Température 2°C
Humidité 93%
Pression 1021 hPa
Visibilité: 7000 m

METAR: LIME 300420Z 01004KT 7000 NSC 02/01 Q1021 NOSIG

Heure: 06:00 (05:00 UTC)

Prévision

Le bulletin a été fait il y a 6 heures et 0 minutes, à 23:00 UTC
Prévision valable du 30 à 00 UTC au 30 à 24 UTC
Vent 3 kt de direction variable
Visibilité: 4000 m
Nuages fragmentés à une hauteur de 1000 ft
brume
Evoluant progressivement
du 30 à 06 UTC au 30 à 08 UTC
Visibilité: 7000 m
Nuages épars à une hauteur de 2000 ft

TAF: LIME 292300Z 3000/3024 VRB03KT 4000 BR BKN010 BECMG 3006/3008 7000 SCT020

Observations et prévisions météorologiques de plus de 4000 aéroports (messages METAR et TAF).

Les stations disponibles sont représentées par des disques jaunes et rouges sur la carte.

Passer la souris dessus pour voir le nom de la station.

Cliquer dessus pour voir les observations et prévisions météorologiques.

Pour changer de carte: cliquez sur les boutons verts avec une croix noire pour zoomer, sur le bouton vert avec un tiret pour effectuer un zoom arrière, ou sur les flèches vertes pour les cartes adjacentes.


METAR-TAF: